sensor_id;sensor_type;location;lat;lon;timestamp;P1;durP1;ratioP1;P2;durP2;ratioP2
3329;SDS011;1677;49.576;10.990;2023-04-22T00:01:59;7.07;;;5.10;;
3329;SDS011;1677;49.576;10.990;2023-04-22T00:04:25;6.40;;;4.90;;
3329;SDS011;1677;49.576;10.990;2023-04-22T00:06:51;6.50;;;5.20;;
3329;SDS011;1677;49.576;10.990;2023-04-22T00:09:16;9.23;;;6.30;;
3329;SDS011;1677;49.576;10.990;2023-04-22T00:11:42;5.43;;;4.73;;
3329;SDS011;1677;49.576;10.990;2023-04-22T00:14:07;6.00;;;4.70;;
3329;SDS011;1677;49.576;10.990;2023-04-22T00:16:33;8.50;;;4.77;;
3329;SDS011;1677;49.576;10.990;2023-04-22T00:18:59;4.83;;;4.40;;
3329;SDS011;1677;49.576;10.990;2023-04-22T00:21:24;5.77;;;4.93;;
3329;SDS011;1677;49.576;10.990;2023-04-22T00:23:51;6.07;;;4.20;;
3329;SDS011;1677;49.576;10.990;2023-04-22T00:26:16;4.53;;;4.13;;
3329;SDS011;1677;49.576;10.990;2023-04-22T00:28:42;5.83;;;4.40;;
3329;SDS011;1677;49.576;10.990;2023-04-22T00:31:07;7.67;;;5.10;;
3329;SDS011;1677;49.576;10.990;2023-04-22T00:33:33;6.60;;;4.20;;
3329;SDS011;1677;49.576;10.990;2023-04-22T00:35:59;5.13;;;4.33;;
3329;SDS011;1677;49.576;10.990;2023-04-22T00:38:24;7.07;;;5.20;;
3329;SDS011;1677;49.576;10.990;2023-04-22T00:40:50;5.50;;;4.83;;
3329;SDS011;1677;49.576;10.990;2023-04-22T00:43:15;5.23;;;3.90;;
3329;SDS011;1677;49.576;10.990;2023-04-22T00:45:42;6.53;;;4.70;;
3329;SDS011;1677;49.576;10.990;2023-04-22T00:48:08;11.40;;;5.00;;
3329;SDS011;1677;49.576;10.990;2023-04-22T00:50:34;4.97;;;4.47;;
3329;SDS011;1677;49.576;10.990;2023-04-22T00:52:59;7.37;;;4.20;;
3329;SDS011;1677;49.576;10.990;2023-04-22T00:55:25;6.33;;;4.80;;
3329;SDS011;1677;49.576;10.990;2023-04-22T00:57:51;5.23;;;4.63;;
3329;SDS011;1677;49.576;10.990;2023-04-22T01:00:22;8.63;;;5.50;;
3329;SDS011;1677;49.576;10.990;2023-04-22T01:02:51;6.43;;;4.27;;
3329;SDS011;1677;49.576;10.990;2023-04-22T01:05:18;8.10;;;5.30;;
3329;SDS011;1677;49.576;10.990;2023-04-22T01:07:44;7.77;;;5.40;;
3329;SDS011;1677;49.576;10.990;2023-04-22T01:10:09;6.07;;;5.47;;
3329;SDS011;1677;49.576;10.990;2023-04-22T01:12:35;8.30;;;5.70;;
3329;SDS011;1677;49.576;10.990;2023-04-22T01:15:01;4.87;;;4.23;;
3329;SDS011;1677;49.576;10.990;2023-04-22T01:17:27;5.10;;;4.50;;
3329;SDS011;1677;49.576;10.990;2023-04-22T01:19:53;6.53;;;5.20;;
3329;SDS011;1677;49.576;10.990;2023-04-22T01:22:19;6.00;;;4.80;;
3329;SDS011;1677;49.576;10.990;2023-04-22T01:24:46;6.87;;;4.90;;
3329;SDS011;1677;49.576;10.990;2023-04-22T01:27:12;5.33;;;4.60;;
3329;SDS011;1677;49.576;10.990;2023-04-22T01:29:38;5.33;;;4.73;;
3329;SDS011;1677;49.576;10.990;2023-04-22T01:32:04;6.10;;;5.50;;
3329;SDS011;1677;49.576;10.990;2023-04-22T01:34:30;4.87;;;4.37;;
3329;SDS011;1677;49.576;10.990;2023-04-22T01:36:56;6.70;;;4.63;;
3329;SDS011;1677;49.576;10.990;2023-04-22T01:39:22;6.83;;;4.53;;
3329;SDS011;1677;49.576;10.990;2023-04-22T01:41:47;7.30;;;4.90;;
3329;SDS011;1677;49.576;10.990;2023-04-22T01:44:13;7.07;;;5.67;;
3329;SDS011;1677;49.576;10.990;2023-04-22T01:46:39;6.20;;;5.60;;
3329;SDS011;1677;49.576;10.990;2023-04-22T01:49:05;5.77;;;5.17;;
3329;SDS011;1677;49.576;10.990;2023-04-22T01:51:30;6.37;;;5.40;;
3329;SDS011;1677;49.576;10.990;2023-04-22T01:53:56;6.80;;;5.13;;
3329;SDS011;1677;49.576;10.990;2023-04-22T01:56:22;6.00;;;5.00;;
3329;SDS011;1677;49.576;10.990;2023-04-22T01:58:48;5.63;;;4.90;;
3329;SDS011;1677;49.576;10.990;2023-04-22T02:01:14;5.30;;;4.80;;
3329;SDS011;1677;49.576;10.990;2023-04-22T02:03:40;5.83;;;4.80;;
3329;SDS011;1677;49.576;10.990;2023-04-22T02:06:05;6.57;;;5.57;;
3329;SDS011;1677;49.576;10.990;2023-04-22T02:08:31;6.07;;;5.40;;
3329;SDS011;1677;49.576;10.990;2023-04-22T02:10:57;7.10;;;6.40;;
3329;SDS011;1677;49.576;10.990;2023-04-22T02:13:24;6.70;;;5.63;;
3329;SDS011;1677;49.576;10.990;2023-04-22T02:15:51;9.30;;;6.20;;
3329;SDS011;1677;49.576;10.990;2023-04-22T02:18:17;9.10;;;5.80;;
3329;SDS011;1677;49.576;10.990;2023-04-22T02:20:43;5.60;;;5.10;;
3329;SDS011;1677;49.576;10.990;2023-04-22T02:23:09;6.33;;;5.27;;
3329;SDS011;1677;49.576;10.990;2023-04-22T02:25:35;8.57;;;5.43;;
3329;SDS011;1677;49.576;10.990;2023-04-22T02:28:02;6.20;;;5.07;;
3329;SDS011;1677;49.576;10.990;2023-04-22T02:30:27;6.20;;;4.93;;
3329;SDS011;1677;49.576;10.990;2023-04-22T02:32:53;6.63;;;5.97;;
3329;SDS011;1677;49.576;10.990;2023-04-22T02:35:20;6.80;;;6.00;;
3329;SDS011;1677;49.576;10.990;2023-04-22T02:37:45;9.10;;;6.17;;
3329;SDS011;1677;49.576;10.990;2023-04-22T02:40:11;6.67;;;5.33;;
3329;SDS011;1677;49.576;10.990;2023-04-22T02:42:36;6.87;;;6.17;;
3329;SDS011;1677;49.576;10.990;2023-04-22T02:45:02;6.10;;;5.00;;
3329;SDS011;1677;49.576;10.990;2023-04-22T02:47:28;7.57;;;5.77;;
3329;SDS011;1677;49.576;10.990;2023-04-22T02:49:53;6.80;;;6.13;;
3329;SDS011;1677;49.576;10.990;2023-04-22T02:52:19;8.80;;;5.30;;
3329;SDS011;1677;49.576;10.990;2023-04-22T02:54:44;7.13;;;6.40;;
3329;SDS011;1677;49.576;10.990;2023-04-22T02:57:10;8.13;;;6.30;;
3329;SDS011;1677;49.576;10.990;2023-04-22T02:59:35;8.90;;;5.60;;
3329;SDS011;1677;49.576;10.990;2023-04-22T03:02:01;7.50;;;5.60;;
3329;SDS011;1677;49.576;10.990;2023-04-22T03:04:27;10.03;;;6.77;;
3329;SDS011;1677;49.576;10.990;2023-04-22T03:06:52;11.20;;;6.87;;
3329;SDS011;1677;49.576;10.990;2023-04-22T03:09:18;7.27;;;5.50;;
3329;SDS011;1677;49.576;10.990;2023-04-22T03:11:43;8.90;;;6.10;;
3329;SDS011;1677;49.576;10.990;2023-04-22T03:14:09;8.50;;;6.47;;
3329;SDS011;1677;49.576;10.990;2023-04-22T03:16:35;7.63;;;5.77;;
3329;SDS011;1677;49.576;10.990;2023-04-22T03:19:01;9.40;;;6.70;;
3329;SDS011;1677;49.576;10.990;2023-04-22T03:21:26;9.57;;;6.13;;
3329;SDS011;1677;49.576;10.990;2023-04-22T03:23:52;8.97;;;5.80;;
3329;SDS011;1677;49.576;10.990;2023-04-22T03:26:18;6.70;;;5.67;;
3329;SDS011;1677;49.576;10.990;2023-04-22T03:28:44;7.83;;;5.90;;
3329;SDS011;1677;49.576;10.990;2023-04-22T03:31:09;8.67;;;6.93;;
3329;SDS011;1677;49.576;10.990;2023-04-22T03:33:35;5.37;;;4.87;;
3329;SDS011;1677;49.576;10.990;2023-04-22T03:36:00;5.77;;;5.03;;
3329;SDS011;1677;49.576;10.990;2023-04-22T03:38:26;7.70;;;5.70;;
3329;SDS011;1677;49.576;10.990;2023-04-22T03:40:52;8.53;;;6.23;;
3329;SDS011;1677;49.576;10.990;2023-04-22T03:43:17;8.43;;;6.77;;
3329;SDS011;1677;49.576;10.990;2023-04-22T03:45:43;6.90;;;5.50;;
3329;SDS011;1677;49.576;10.990;2023-04-22T03:48:09;15.32;;;6.57;;
3329;SDS011;1677;49.576;10.990;2023-04-22T03:50:34;6.50;;;5.90;;
3329;SDS011;1677;49.576;10.990;2023-04-22T03:53:00;6.77;;;5.63;;
3329;SDS011;1677;49.576;10.990;2023-04-22T03:55:26;5.70;;;5.10;;
3329;SDS011;1677;49.576;10.990;2023-04-22T03:57:51;7.17;;;6.20;;
3329;SDS011;1677;49.576;10.990;2023-04-22T04:00:17;9.03;;;6.00;;
3329;SDS011;1677;49.576;10.990;2023-04-22T04:02:42;9.87;;;5.47;;
3329;SDS011;1677;49.576;10.990;2023-04-22T04:05:08;6.20;;;4.90;;
3329;SDS011;1677;49.576;10.990;2023-04-22T04:07:35;9.98;;;5.00;;
3329;SDS011;1677;49.576;10.990;2023-04-22T04:10:00;5.23;;;4.70;;
3329;SDS011;1677;49.576;10.990;2023-04-22T04:12:26;6.13;;;5.53;;
3329;SDS011;1677;49.576;10.990;2023-04-22T04:14:52;6.30;;;5.50;;
3329;SDS011;1677;49.576;10.990;2023-04-22T04:17:17;6.73;;;5.40;;
3329;SDS011;1677;49.576;10.990;2023-04-22T04:19:43;5.10;;;4.60;;
3329;SDS011;1677;49.576;10.990;2023-04-22T04:22:08;6.23;;;5.43;;
3329;SDS011;1677;49.576;10.990;2023-04-22T04:24:34;7.95;;;5.53;;
3329;SDS011;1677;49.576;10.990;2023-04-22T04:27:00;7.07;;;5.33;;
3329;SDS011;1677;49.576;10.990;2023-04-22T04:29:27;8.15;;;5.28;;
3329;SDS011;1677;49.576;10.990;2023-04-22T04:31:52;8.63;;;5.43;;
3329;SDS011;1677;49.576;10.990;2023-04-22T04:34:18;6.47;;;5.07;;
3329;SDS011;1677;49.576;10.990;2023-04-22T04:36:44;5.20;;;4.70;;
3329;SDS011;1677;49.576;10.990;2023-04-22T04:39:10;6.82;;;5.72;;
3329;SDS011;1677;49.576;10.990;2023-04-22T04:41:36;11.23;;;6.20;;
3329;SDS011;1677;49.576;10.990;2023-04-22T04:44:02;5.45;;;4.85;;
3329;SDS011;1677;49.576;10.990;2023-04-22T04:46:28;6.70;;;4.60;;
3329;SDS011;1677;49.576;10.990;2023-04-22T04:48:54;7.10;;;5.20;;
3329;SDS011;1677;49.576;10.990;2023-04-22T04:51:21;5.30;;;4.43;;
3329;SDS011;1677;49.576;10.990;2023-04-22T04:53:46;5.53;;;5.03;;
3329;SDS011;1677;49.576;10.990;2023-04-22T04:56:12;6.93;;;4.80;;
3329;SDS011;1677;49.576;10.990;2023-04-22T04:58:38;6.53;;;5.03;;
3329;SDS011;1677;49.576;10.990;2023-04-22T05:01:03;7.50;;;5.40;;
3329;SDS011;1677;49.576;10.990;2023-04-22T05:03:30;7.53;;;5.10;;
3329;SDS011;1677;49.576;10.990;2023-04-22T05:05:55;5.83;;;5.27;;
3329;SDS011;1677;49.576;10.990;2023-04-22T05:08:21;7.80;;;5.13;;
3329;SDS011;1677;49.576;10.990;2023-04-22T05:10:46;5.20;;;4.37;;
3329;SDS011;1677;49.576;10.990;2023-04-22T05:13:12;5.43;;;4.60;;
3329;SDS011;1677;49.576;10.990;2023-04-22T05:15:38;6.53;;;5.03;;
3329;SDS011;1677;49.576;10.990;2023-04-22T05:18:04;6.80;;;5.23;;
3329;SDS011;1677;49.576;10.990;2023-04-22T05:20:30;7.80;;;4.83;;
3329;SDS011;1677;49.576;10.990;2023-04-22T05:22:55;5.43;;;4.93;;
3329;SDS011;1677;49.576;10.990;2023-04-22T05:25:21;7.67;;;4.90;;
3329;SDS011;1677;49.576;10.990;2023-04-22T05:27:46;5.13;;;4.40;;
3329;SDS011;1677;49.576;10.990;2023-04-22T05:30:12;6.10;;;5.50;;
3329;SDS011;1677;49.576;10.990;2023-04-22T05:32:38;10.80;;;6.03;;
3329;SDS011;1677;49.576;10.990;2023-04-22T05:35:03;6.20;;;5.13;;
3329;SDS011;1677;49.576;10.990;2023-04-22T05:37:29;7.10;;;5.10;;
3329;SDS011;1677;49.576;10.990;2023-04-22T05:39:55;6.73;;;5.70;;
3329;SDS011;1677;49.576;10.990;2023-04-22T05:42:21;7.93;;;5.43;;
3329;SDS011;1677;49.576;10.990;2023-04-22T05:44:46;7.13;;;6.43;;
3329;SDS011;1677;49.576;10.990;2023-04-22T05:47:12;6.53;;;5.70;;
3329;SDS011;1677;49.576;10.990;2023-04-22T05:49:38;7.67;;;5.60;;
3329;SDS011;1677;49.576;10.990;2023-04-22T05:52:03;5.37;;;4.83;;
3329;SDS011;1677;49.576;10.990;2023-04-22T05:54:29;7.70;;;5.50;;
3329;SDS011;1677;49.576;10.990;2023-04-22T05:56:54;8.07;;;7.10;;
3329;SDS011;1677;49.576;10.990;2023-04-22T05:59:20;7.43;;;5.07;;
3329;SDS011;1677;49.576;10.990;2023-04-22T06:01:46;5.83;;;5.20;;
3329;SDS011;1677;49.576;10.990;2023-04-22T06:04:12;6.97;;;5.20;;
3329;SDS011;1677;49.576;10.990;2023-04-22T06:06:37;6.70;;;5.27;;
3329;SDS011;1677;49.576;10.990;2023-04-22T06:09:03;6.37;;;5.77;;
3329;SDS011;1677;49.576;10.990;2023-04-22T06:11:31;6.23;;;5.07;;
3329;SDS011;1677;49.576;10.990;2023-04-22T06:13:57;5.67;;;5.00;;
3329;SDS011;1677;49.576;10.990;2023-04-22T06:16:22;4.80;;;4.40;;
3329;SDS011;1677;49.576;10.990;2023-04-22T06:18:48;11.63;;;4.90;;
3329;SDS011;1677;49.576;10.990;2023-04-22T06:21:13;4.17;;;3.77;;
3329;SDS011;1677;49.576;10.990;2023-04-22T06:23:39;6.97;;;4.83;;
3329;SDS011;1677;49.576;10.990;2023-04-22T06:26:06;4.27;;;3.73;;
3329;SDS011;1677;49.576;10.990;2023-04-22T06:28:32;6.10;;;4.17;;
3329;SDS011;1677;49.576;10.990;2023-04-22T06:30:57;4.47;;;4.07;;
3329;SDS011;1677;49.576;10.990;2023-04-22T06:33:23;6.87;;;4.50;;
3329;SDS011;1677;49.576;10.990;2023-04-22T06:35:48;10.00;;;5.40;;
3329;SDS011;1677;49.576;10.990;2023-04-22T06:38:14;6.30;;;5.60;;
3329;SDS011;1677;49.576;10.990;2023-04-22T06:40:40;14.97;;;6.47;;
3329;SDS011;1677;49.576;10.990;2023-04-22T06:43:05;7.67;;;5.93;;
3329;SDS011;1677;49.576;10.990;2023-04-22T06:45:31;6.37;;;4.10;;
3329;SDS011;1677;49.576;10.990;2023-04-22T06:47:56;4.53;;;3.37;;
3329;SDS011;1677;49.576;10.990;2023-04-22T06:50:22;5.80;;;3.83;;
3329;SDS011;1677;49.576;10.990;2023-04-22T06:52:47;7.63;;;4.60;;
3329;SDS011;1677;49.576;10.990;2023-04-22T06:55:13;5.27;;;3.53;;
3329;SDS011;1677;49.576;10.990;2023-04-22T06:57:39;6.93;;;3.90;;
3329;SDS011;1677;49.576;10.990;2023-04-22T07:00:05;5.70;;;4.40;;
3329;SDS011;1677;49.576;10.990;2023-04-22T07:02:33;5.70;;;3.30;;
3329;SDS011;1677;49.576;10.990;2023-04-22T07:04:59;5.03;;;3.83;;
3329;SDS011;1677;49.576;10.990;2023-04-22T07:07:25;6.90;;;3.83;;
3329;SDS011;1677;49.576;10.990;2023-04-22T07:09:50;4.30;;;3.50;;
3329;SDS011;1677;49.576;10.990;2023-04-22T07:12:16;3.67;;;3.23;;
3329;SDS011;1677;49.576;10.990;2023-04-22T07:14:42;4.33;;;3.93;;
3329;SDS011;1677;49.576;10.990;2023-04-22T07:17:08;6.80;;;4.63;;
3329;SDS011;1677;49.576;10.990;2023-04-22T07:19:35;3.67;;;3.37;;
3329;SDS011;1677;49.576;10.990;2023-04-22T07:22:00;4.20;;;3.80;;
3329;SDS011;1677;49.576;10.990;2023-04-22T07:24:27;6.40;;;4.70;;
3329;SDS011;1677;49.576;10.990;2023-04-22T07:26:53;9.60;;;7.43;;
3329;SDS011;1677;49.576;10.990;2023-04-22T07:29:18;9.43;;;5.70;;
3329;SDS011;1677;49.576;10.990;2023-04-22T07:31:44;7.33;;;4.60;;
3329;SDS011;1677;49.576;10.990;2023-04-22T07:34:09;14.70;;;5.33;;
3329;SDS011;1677;49.576;10.990;2023-04-22T07:36:35;4.40;;;3.90;;
3329;SDS011;1677;49.576;10.990;2023-04-22T07:39:01;5.60;;;4.37;;
3329;SDS011;1677;49.576;10.990;2023-04-22T07:41:26;6.87;;;4.10;;
3329;SDS011;1677;49.576;10.990;2023-04-22T07:43:52;4.73;;;3.47;;
3329;SDS011;1677;49.576;10.990;2023-04-22T07:46:17;5.47;;;3.50;;
3329;SDS011;1677;49.576;10.990;2023-04-22T07:48:43;4.27;;;3.67;;
3329;SDS011;1677;49.576;10.990;2023-04-22T07:51:09;3.77;;;3.47;;
3329;SDS011;1677;49.576;10.990;2023-04-22T07:53:35;5.87;;;3.70;;
3329;SDS011;1677;49.576;10.990;2023-04-22T07:56:01;12.37;;;4.37;;
3329;SDS011;1677;49.576;10.990;2023-04-22T07:58:26;3.50;;;3.20;;
3329;SDS011;1677;49.576;10.990;2023-04-22T08:00:52;4.47;;;3.20;;
3329;SDS011;1677;49.576;10.990;2023-04-22T08:03:18;9.43;;;3.70;;
3329;SDS011;1677;49.576;10.990;2023-04-22T08:05:43;5.10;;;3.90;;
3329;SDS011;1677;49.576;10.990;2023-04-22T08:08:09;4.40;;;3.70;;
3329;SDS011;1677;49.576;10.990;2023-04-22T08:10:34;6.20;;;3.77;;
3329;SDS011;1677;49.576;10.990;2023-04-22T08:13:00;5.90;;;4.03;;
3329;SDS011;1677;49.576;10.990;2023-04-22T08:15:26;5.93;;;4.00;;
3329;SDS011;1677;49.576;10.990;2023-04-22T08:17:51;3.87;;;3.47;;
3329;SDS011;1677;49.576;10.990;2023-04-22T08:20:17;5.80;;;3.40;;
3329;SDS011;1677;49.576;10.990;2023-04-22T08:22:43;7.27;;;4.07;;
3329;SDS011;1677;49.576;10.990;2023-04-22T08:25:09;6.87;;;4.07;;
3329;SDS011;1677;49.576;10.990;2023-04-22T08:27:36;4.37;;;3.97;;
3329;SDS011;1677;49.576;10.990;2023-04-22T08:30:02;4.77;;;4.07;;
3329;SDS011;1677;49.576;10.990;2023-04-22T08:32:28;7.17;;;4.20;;
3329;SDS011;1677;49.576;10.990;2023-04-22T08:34:53;6.67;;;4.90;;
3329;SDS011;1677;49.576;10.990;2023-04-22T08:37:19;9.80;;;5.57;;
3329;SDS011;1677;49.576;10.990;2023-04-22T08:39:44;6.10;;;4.07;;
3329;SDS011;1677;49.576;10.990;2023-04-22T08:42:11;7.90;;;4.93;;
3329;SDS011;1677;49.576;10.990;2023-04-22T08:44:37;5.17;;;4.70;;
3329;SDS011;1677;49.576;10.990;2023-04-22T08:47:03;6.40;;;4.47;;
3329;SDS011;1677;49.576;10.990;2023-04-22T08:49:29;4.83;;;4.17;;
3329;SDS011;1677;49.576;10.990;2023-04-22T08:51:55;4.30;;;3.90;;
3329;SDS011;1677;49.576;10.990;2023-04-22T08:54:22;7.83;;;4.73;;
3329;SDS011;1677;49.576;10.990;2023-04-22T08:56:48;4.40;;;4.00;;
3329;SDS011;1677;49.576;10.990;2023-04-22T08:59:15;4.40;;;4.00;;
3329;SDS011;1677;49.576;10.990;2023-04-22T09:01:41;4.07;;;3.30;;
3329;SDS011;1677;49.576;10.990;2023-04-22T09:04:08;5.00;;;4.20;;
3329;SDS011;1677;49.576;10.990;2023-04-22T09:06:35;6.87;;;4.47;;
3329;SDS011;1677;49.576;10.990;2023-04-22T09:09:02;5.10;;;4.67;;
3329;SDS011;1677;49.576;10.990;2023-04-22T09:11:30;5.93;;;4.40;;
3329;SDS011;1677;49.576;10.990;2023-04-22T09:13:56;5.40;;;3.80;;
3329;SDS011;1677;49.576;10.990;2023-04-22T09:16:22;4.23;;;3.80;;
3329;SDS011;1677;49.576;10.990;2023-04-22T09:18:48;3.93;;;3.63;;
3329;SDS011;1677;49.576;10.990;2023-04-22T09:21:14;3.83;;;3.53;;
3329;SDS011;1677;49.576;10.990;2023-04-22T09:23:44;5.97;;;4.47;;
3329;SDS011;1677;49.576;10.990;2023-04-22T09:26:20;4.10;;;3.70;;
3329;SDS011;1677;49.576;10.990;2023-04-22T09:28:49;5.83;;;5.23;;
3329;SDS011;1677;49.576;10.990;2023-04-22T09:31:25;14.60;;;5.50;;
3329;SDS011;1677;49.576;10.990;2023-04-22T09:33:53;4.50;;;3.47;;
3329;SDS011;1677;49.576;10.990;2023-04-22T09:36:30;3.87;;;3.30;;
3329;SDS011;1677;49.576;10.990;2023-04-22T09:39:01;5.23;;;3.77;;
3329;SDS011;1677;49.576;10.990;2023-04-22T09:41:32;6.30;;;4.20;;
3329;SDS011;1677;49.576;10.990;2023-04-22T09:44:15;7.07;;;4.00;;
3329;SDS011;1677;49.576;10.990;2023-04-22T09:46:42;4.23;;;3.23;;
3329;SDS011;1677;49.576;10.990;2023-04-22T09:49:08;4.30;;;3.53;;
3329;SDS011;1677;49.576;10.990;2023-04-22T09:51:34;3.90;;;3.43;;
3329;SDS011;1677;49.576;10.990;2023-04-22T09:54:05;4.70;;;3.03;;
3329;SDS011;1677;49.576;10.990;2023-04-22T09:56:41;4.20;;;3.80;;
3329;SDS011;1677;49.576;10.990;2023-04-22T09:59:13;5.50;;;3.20;;
3329;SDS011;1677;49.576;10.990;2023-04-22T10:01:40;3.73;;;3.43;;
3329;SDS011;1677;49.576;10.990;2023-04-22T10:04:07;2.97;;;2.77;;
3329;SDS011;1677;49.576;10.990;2023-04-22T10:06:38;4.77;;;3.20;;
3329;SDS011;1677;49.576;10.990;2023-04-22T10:09:04;3.50;;;2.50;;
3329;SDS011;1677;49.576;10.990;2023-04-22T10:11:31;4.97;;;4.07;;
3329;SDS011;1677;49.576;10.990;2023-04-22T10:13:57;3.97;;;2.93;;
3329;SDS011;1677;49.576;10.990;2023-04-22T10:16:27;5.43;;;3.57;;
3329;SDS011;1677;49.576;10.990;2023-04-22T10:18:56;4.80;;;3.07;;
3329;SDS011;1677;49.576;10.990;2023-04-22T10:21:23;3.83;;;2.90;;
3329;SDS011;1677;49.576;10.990;2023-04-22T10:23:50;5.20;;;3.83;;
3329;SDS011;1677;49.576;10.990;2023-04-22T10:29:07;3.93;;;3.00;;
3329;SDS011;1677;49.576;10.990;2023-04-22T10:31:36;3.13;;;2.80;;
3329;SDS011;1677;49.576;10.990;2023-04-22T10:34:12;2.77;;;2.57;;
3329;SDS011;1677;49.576;10.990;2023-04-22T10:37:04;2.53;;;2.33;;
3329;SDS011;1677;49.576;10.990;2023-04-22T10:39:32;2.53;;;2.33;;
3329;SDS011;1677;49.576;10.990;2023-04-22T10:42:11;4.30;;;2.90;;
3329;SDS011;1677;49.576;10.990;2023-04-22T10:44:51;2.83;;;2.30;;
3329;SDS011;1677;49.576;10.990;2023-04-22T10:47:26;3.00;;;2.80;;
3329;SDS011;1677;49.576;10.990;2023-04-22T10:52:39;3.53;;;2.90;;
3329;SDS011;1677;49.576;10.990;2023-04-22T10:55:06;5.17;;;2.57;;
3329;SDS011;1677;49.576;10.990;2023-04-22T10:57:36;2.73;;;2.53;;
3329;SDS011;1677;49.576;10.990;2023-04-22T11:00:20;2.70;;;2.50;;
3329;SDS011;1677;49.576;10.990;2023-04-22T11:05:29;3.40;;;2.60;;
3329;SDS011;1677;49.576;10.990;2023-04-22T11:08:00;6.57;;;3.30;;
3329;SDS011;1677;49.576;10.990;2023-04-22T11:10:38;2.40;;;2.20;;
3329;SDS011;1677;49.576;10.990;2023-04-22T11:13:09;6.90;;;2.97;;
3329;SDS011;1677;49.576;10.990;2023-04-22T11:15:40;3.53;;;2.90;;
3329;SDS011;1677;49.576;10.990;2023-04-22T11:18:12;5.23;;;3.20;;
3329;SDS011;1677;49.576;10.990;2023-04-22T11:20:41;5.90;;;3.70;;
3329;SDS011;1677;49.576;10.990;2023-04-22T11:23:07;3.27;;;2.97;;
3329;SDS011;1677;49.576;10.990;2023-04-22T11:25:32;4.13;;;3.00;;
3329;SDS011;1677;49.576;10.990;2023-04-22T11:27:58;3.90;;;2.70;;
3329;SDS011;1677;49.576;10.990;2023-04-22T11:30:24;4.27;;;3.27;;
3329;SDS011;1677;49.576;10.990;2023-04-22T11:32:52;4.90;;;2.30;;
3329;SDS011;1677;49.576;10.990;2023-04-22T11:35:31;3.67;;;3.37;;
3329;SDS011;1677;49.576;10.990;2023-04-22T11:38:00;2.17;;;1.97;;
3329;SDS011;1677;49.576;10.990;2023-04-22T11:42:57;5.73;;;2.40;;
3329;SDS011;1677;49.576;10.990;2023-04-22T11:45:24;7.10;;;4.63;;
3329;SDS011;1677;49.576;10.990;2023-04-22T11:47:50;3.20;;;2.17;;
3329;SDS011;1677;49.576;10.990;2023-04-22T11:50:17;2.40;;;2.20;;
3329;SDS011;1677;49.576;10.990;2023-04-22T11:55:20;3.10;;;2.07;;
3329;SDS011;1677;49.576;10.990;2023-04-22T11:58:01;3.13;;;2.00;;
3329;SDS011;1677;49.576;10.990;2023-04-22T12:00:32;4.27;;;1.70;;
3329;SDS011;1677;49.576;10.990;2023-04-22T12:06:28;2.50;;;1.60;;
3329;SDS011;1677;49.576;10.990;2023-04-22T12:08:25;1.90;;;1.57;;
3329;SDS011;1677;49.576;10.990;2023-04-22T12:10:58;2.40;;;2.10;;
3329;SDS011;1677;49.576;10.990;2023-04-22T12:13:30;4.03;;;2.13;;
3329;SDS011;1677;49.576;10.990;2023-04-22T12:16:03;4.90;;;1.83;;
3329;SDS011;1677;49.576;10.990;2023-04-22T12:18:30;2.60;;;1.83;;
3329;SDS011;1677;49.576;10.990;2023-04-22T12:23:29;2.73;;;2.10;;
3329;SDS011;1677;49.576;10.990;2023-04-22T12:26:04;1.93;;;1.53;;
3329;SDS011;1677;49.576;10.990;2023-04-22T12:28:30;3.27;;;2.03;;
3329;SDS011;1677;49.576;10.990;2023-04-22T12:30:55;1.60;;;1.50;;
3329;SDS011;1677;49.576;10.990;2023-04-22T12:33:21;2.40;;;1.93;;
3329;SDS011;1677;49.576;10.990;2023-04-22T12:35:46;2.60;;;2.10;;
3329;SDS011;1677;49.576;10.990;2023-04-22T12:38:16;2.70;;;1.90;;
3329;SDS011;1677;49.576;10.990;2023-04-22T12:40:42;3.70;;;2.80;;
3329;SDS011;1677;49.576;10.990;2023-04-22T12:43:07;2.40;;;1.80;;
3329;SDS011;1677;49.576;10.990;2023-04-22T12:45:33;3.23;;;2.13;;
3329;SDS011;1677;49.576;10.990;2023-04-22T12:47:59;2.90;;;2.17;;
3329;SDS011;1677;49.576;10.990;2023-04-22T12:50:24;3.33;;;2.20;;
3329;SDS011;1677;49.576;10.990;2023-04-22T12:52:50;2.03;;;1.70;;
3329;SDS011;1677;49.576;10.990;2023-04-22T12:55:16;3.10;;;2.00;;
3329;SDS011;1677;49.576;10.990;2023-04-22T12:57:43;2.27;;;1.90;;
3329;SDS011;1677;49.576;10.990;2023-04-22T13:00:09;5.20;;;1.77;;
3329;SDS011;1677;49.576;10.990;2023-04-22T13:02:39;1.90;;;1.80;;
3329;SDS011;1677;49.576;10.990;2023-04-22T13:05:08;3.13;;;1.80;;
3329;SDS011;1677;49.576;10.990;2023-04-22T13:07:35;3.23;;;2.13;;
3329;SDS011;1677;49.576;10.990;2023-04-22T13:10:01;7.50;;;4.43;;
3329;SDS011;1677;49.576;10.990;2023-04-22T13:12:27;3.77;;;3.43;;
3329;SDS011;1677;49.576;10.990;2023-04-22T13:14:53;3.23;;;2.20;;
3329;SDS011;1677;49.576;10.990;2023-04-22T13:17:18;2.73;;;2.53;;
3329;SDS011;1677;49.576;10.990;2023-04-22T13:19:45;2.40;;;2.20;;
3329;SDS011;1677;49.576;10.990;2023-04-22T13:22:11;2.77;;;1.93;;
3329;SDS011;1677;49.576;10.990;2023-04-22T13:24:37;2.50;;;2.13;;
3329;SDS011;1677;49.576;10.990;2023-04-22T13:27:03;2.83;;;2.03;;
3329;SDS011;1677;49.576;10.990;2023-04-22T13:29:31;3.17;;;2.00;;
3329;SDS011;1677;49.576;10.990;2023-04-22T13:31:57;2.43;;;2.00;;
3329;SDS011;1677;49.576;10.990;2023-04-22T13:34:22;3.60;;;2.30;;
3329;SDS011;1677;49.576;10.990;2023-04-22T13:36:48;2.53;;;2.10;;
3329;SDS011;1677;49.576;10.990;2023-04-22T13:39:14;4.53;;;2.40;;
3329;SDS011;1677;49.576;10.990;2023-04-22T13:41:40;2.23;;;2.03;;
3329;SDS011;1677;49.576;10.990;2023-04-22T13:44:05;2.30;;;2.00;;
3329;SDS011;1677;49.576;10.990;2023-04-22T13:46:31;4.20;;;2.47;;
3329;SDS011;1677;49.576;10.990;2023-04-22T13:48:57;2.50;;;1.83;;
3329;SDS011;1677;49.576;10.990;2023-04-22T13:51:22;2.50;;;2.30;;
3329;SDS011;1677;49.576;10.990;2023-04-22T13:53:48;5.00;;;3.57;;
3329;SDS011;1677;49.576;10.990;2023-04-22T13:56:14;3.03;;;2.40;;
3329;SDS011;1677;49.576;10.990;2023-04-22T13:58:40;2.13;;;1.93;;
3329;SDS011;1677;49.576;10.990;2023-04-22T14:01:06;2.80;;;2.40;;
3329;SDS011;1677;49.576;10.990;2023-04-22T14:03:32;6.20;;;2.37;;
3329;SDS011;1677;49.576;10.990;2023-04-22T14:05:58;3.27;;;2.70;;
3329;SDS011;1677;49.576;10.990;2023-04-22T14:08:25;6.47;;;4.10;;
3329;SDS011;1677;49.576;10.990;2023-04-22T14:10:50;2.53;;;2.20;;
3329;SDS011;1677;49.576;10.990;2023-04-22T14:13:16;4.47;;;3.50;;
3329;SDS011;1677;49.576;10.990;2023-04-22T14:15:42;2.93;;;2.63;;
3329;SDS011;1677;49.576;10.990;2023-04-22T14:18:08;3.07;;;2.50;;
3329;SDS011;1677;49.576;10.990;2023-04-22T14:20:33;4.50;;;2.50;;
3329;SDS011;1677;49.576;10.990;2023-04-22T14:22:59;3.90;;;3.50;;
3329;SDS011;1677;49.576;10.990;2023-04-22T14:25:25;3.73;;;2.40;;
3329;SDS011;1677;49.576;10.990;2023-04-22T14:27:50;2.90;;;2.43;;
3329;SDS011;1677;49.576;10.990;2023-04-22T14:30:16;3.97;;;3.27;;
3329;SDS011;1677;49.576;10.990;2023-04-22T14:32:42;4.00;;;2.70;;
3329;SDS011;1677;49.576;10.990;2023-04-22T14:35:08;2.77;;;1.80;;
3329;SDS011;1677;49.576;10.990;2023-04-22T14:37:34;2.90;;;2.27;;
3329;SDS011;1677;49.576;10.990;2023-04-22T14:40:00;2.90;;;2.07;;
3329;SDS011;1677;49.576;10.990;2023-04-22T14:42:26;3.30;;;2.53;;
3329;SDS011;1677;49.576;10.990;2023-04-22T14:44:52;2.70;;;2.37;;
3329;SDS011;1677;49.576;10.990;2023-04-22T14:47:17;6.30;;;2.27;;
3329;SDS011;1677;49.576;10.990;2023-04-22T14:49:43;2.70;;;2.50;;
3329;SDS011;1677;49.576;10.990;2023-04-22T14:52:09;2.70;;;2.37;;
3329;SDS011;1677;49.576;10.990;2023-04-22T14:54:35;3.77;;;2.03;;
3329;SDS011;1677;49.576;10.990;2023-04-22T14:57:00;3.70;;;2.53;;
3329;SDS011;1677;49.576;10.990;2023-04-22T14:59:26;2.20;;;2.00;;
3329;SDS011;1677;49.576;10.990;2023-04-22T15:01:52;4.17;;;2.57;;
3329;SDS011;1677;49.576;10.990;2023-04-22T15:04:18;3.50;;;3.03;;
3329;SDS011;1677;49.576;10.990;2023-04-22T15:06:44;2.67;;;2.40;;
3329;SDS011;1677;49.576;10.990;2023-04-22T15:09:09;2.37;;;2.17;;
3329;SDS011;1677;49.576;10.990;2023-04-22T15:11:35;6.10;;;4.27;;
3329;SDS011;1677;49.576;10.990;2023-04-22T15:14:01;4.83;;;2.80;;
3329;SDS011;1677;49.576;10.990;2023-04-22T15:16:26;6.20;;;4.47;;